sensor_id;sensor_type;location;lat;lon;timestamp;pressure;altitude;pressure_sealevel;temperature;humidity
55191;BME280;41070;50.360;18.742;2022-11-20T00:01:30;98367.52;;;-5.58;75.39
55191;BME280;41070;50.360;18.742;2022-11-20T00:03:58;98362.31;;;-5.61;75.35
55191;BME280;41070;50.360;18.742;2022-11-20T00:06:27;98360.45;;;-5.65;75.52
55191;BME280;41070;50.360;18.742;2022-11-20T00:08:57;98355.95;;;-5.65;75.63
55191;BME280;41070;50.360;18.742;2022-11-20T00:15:07;98345.64;;;-5.61;76.57
55191;BME280;41070;50.360;18.742;2022-11-20T00:17:35;98345.80;;;-5.56;76.71
55191;BME280;41070;50.360;18.742;2022-11-20T00:20:03;98349.41;;;-5.55;76.20
55191;BME280;41070;50.360;18.742;2022-11-20T00:22:35;98344.81;;;-5.56;76.14
55191;BME280;41070;50.360;18.742;2022-11-20T00:25:03;98351.23;;;-5.61;75.74
55191;BME280;41070;50.360;18.742;2022-11-20T00:27:30;98347.72;;;-5.62;76.24
55191;BME280;41070;50.360;18.742;2022-11-20T00:29:58;98353.92;;;-5.61;76.46
55191;BME280;41070;50.360;18.742;2022-11-20T00:32:26;98353.73;;;-5.59;76.42
55191;BME280;41070;50.360;18.742;2022-11-20T00:34:53;98352.97;;;-5.59;76.70
55191;BME280;41070;50.360;18.742;2022-11-20T00:37:21;98352.42;;;-5.55;76.86
55191;BME280;41070;50.360;18.742;2022-11-20T00:39:49;98349.34;;;-5.53;76.93
55191;BME280;41070;50.360;18.742;2022-11-20T00:42:16;98348.38;;;-5.50;77.10
55191;BME280;41070;50.360;18.742;2022-11-20T00:44:44;98348.09;;;-5.47;77.19
55191;BME280;41070;50.360;18.742;2022-11-20T00:47:12;98351.42;;;-5.43;77.42
55191;BME280;41070;50.360;18.742;2022-11-20T00:49:39;98350.77;;;-5.41;77.34
55191;BME280;41070;50.360;18.742;2022-11-20T00:52:07;98350.73;;;-5.40;77.01
55191;BME280;41070;50.360;18.742;2022-11-20T00:54:39;98353.57;;;-5.39;77.05
55191;BME280;41070;50.360;18.742;2022-11-20T00:57:10;98350.31;;;-5.41;76.94
55191;BME280;41070;50.360;18.742;2022-11-20T00:59:38;98342.45;;;-5.40;77.08
55191;BME280;41070;50.360;18.742;2022-11-20T01:02:05;98342.00;;;-5.42;77.52
55191;BME280;41070;50.360;18.742;2022-11-20T01:04:33;98338.52;;;-5.40;77.33
55191;BME280;41070;50.360;18.742;2022-11-20T01:07:01;98332.38;;;-5.39;77.05
55191;BME280;41070;50.360;18.742;2022-11-20T01:09:28;98326.27;;;-5.40;77.33
55191;BME280;41070;50.360;18.742;2022-11-20T01:11:56;98327.52;;;-5.40;77.17
55191;BME280;41070;50.360;18.742;2022-11-20T01:14:23;98325.08;;;-5.39;77.13
55191;BME280;41070;50.360;18.742;2022-11-20T01:16:51;98319.65;;;-5.40;77.01
55191;BME280;41070;50.360;18.742;2022-11-20T01:19:21;98324.77;;;-5.39;77.33
55191;BME280;41070;50.360;18.742;2022-11-20T01:21:52;98322.65;;;-5.37;77.60
55191;BME280;41070;50.360;18.742;2022-11-20T01:24:21;98323.42;;;-5.38;77.28
55191;BME280;41070;50.360;18.742;2022-11-20T01:26:50;98319.31;;;-5.36;77.85
55191;BME280;41070;50.360;18.742;2022-11-20T01:29:21;98317.71;;;-5.36;77.33
55191;BME280;41070;50.360;18.742;2022-11-20T01:31:50;98315.04;;;-5.37;77.35
55191;BME280;41070;50.360;18.742;2022-11-20T01:34:20;98315.86;;;-5.37;77.41
55191;BME280;41070;50.360;18.742;2022-11-20T01:36:49;98317.27;;;-5.38;77.32
55191;BME280;41070;50.360;18.742;2022-11-20T01:39:22;98317.65;;;-5.36;77.10
55191;BME280;41070;50.360;18.742;2022-11-20T01:41:51;98311.90;;;-5.37;77.28
55191;BME280;41070;50.360;18.742;2022-11-20T01:44:55;98307.41;;;-5.38;77.48
55191;BME280;41070;50.360;18.742;2022-11-20T01:47:28;98302.36;;;-5.36;77.69
55191;BME280;41070;50.360;18.742;2022-11-20T01:50:15;98301.13;;;-5.34;77.69
55191;BME280;41070;50.360;18.742;2022-11-20T01:52:51;98297.74;;;-5.33;77.55
55191;BME280;41070;50.360;18.742;2022-11-20T01:55:26;98296.19;;;-5.33;77.74
55191;BME280;41070;50.360;18.742;2022-11-20T01:57:56;98292.92;;;-5.36;77.58
55191;BME280;41070;50.360;18.742;2022-11-20T02:00:24;98290.16;;;-5.38;78.00
55191;BME280;41070;50.360;18.742;2022-11-20T02:02:56;98291.66;;;-5.37;78.02
55191;BME280;41070;50.360;18.742;2022-11-20T02:05:29;98292.70;;;-5.38;77.69
55191;BME280;41070;50.360;18.742;2022-11-20T02:07:59;98293.54;;;-5.38;77.96
55191;BME280;41070;50.360;18.742;2022-11-20T02:10:29;98295.05;;;-5.38;78.12
55191;BME280;41070;50.360;18.742;2022-11-20T02:12:58;98293.23;;;-5.36;78.12
55191;BME280;41070;50.360;18.742;2022-11-20T02:15:43;98296.70;;;-5.35;77.96
55191;BME280;41070;50.360;18.742;2022-11-20T02:18:14;98297.52;;;-5.32;77.75
55191;BME280;41070;50.360;18.742;2022-11-20T02:20:45;98305.30;;;-5.30;77.99
55191;BME280;41070;50.360;18.742;2022-11-20T02:23:30;98305.35;;;-5.31;77.84
55191;BME280;41070;50.360;18.742;2022-11-20T02:26:02;98303.45;;;-5.31;77.81
55191;BME280;41070;50.360;18.742;2022-11-20T02:28:35;98310.45;;;-5.32;77.76
55191;BME280;41070;50.360;18.742;2022-11-20T02:31:03;98315.38;;;-5.29;78.14
55191;BME280;41070;50.360;18.742;2022-11-20T02:33:30;98314.58;;;-5.31;78.11
55191;BME280;41070;50.360;18.742;2022-11-20T02:35:58;98315.96;;;-5.33;77.97
55191;BME280;41070;50.360;18.742;2022-11-20T02:38:26;98317.45;;;-5.36;77.68
55191;BME280;41070;50.360;18.742;2022-11-20T02:40:53;98318.20;;;-5.38;77.69
55191;BME280;41070;50.360;18.742;2022-11-20T02:43:22;98316.10;;;-5.41;78.02
55191;BME280;41070;50.360;18.742;2022-11-20T02:45:50;98322.07;;;-5.42;77.74
55191;BME280;41070;50.360;18.742;2022-11-20T02:48:18;98326.02;;;-5.44;77.76
55191;BME280;41070;50.360;18.742;2022-11-20T02:50:46;98328.03;;;-5.45;77.73
55191;BME280;41070;50.360;18.742;2022-11-20T02:53:13;98324.31;;;-5.47;77.67
55191;BME280;41070;50.360;18.742;2022-11-20T02:55:41;98323.60;;;-5.46;77.72
55191;BME280;41070;50.360;18.742;2022-11-20T02:58:09;98327.81;;;-5.47;77.71
55191;BME280;41070;50.360;18.742;2022-11-20T03:00:36;98329.36;;;-5.49;77.43
55191;BME280;41070;50.360;18.742;2022-11-20T03:03:04;98330.45;;;-5.50;77.53
55191;BME280;41070;50.360;18.742;2022-11-20T03:09:18;98325.85;;;-5.49;77.23
55191;BME280;41070;50.360;18.742;2022-11-20T03:11:46;98324.99;;;-5.51;77.28
55191;BME280;41070;50.360;18.742;2022-11-20T03:14:14;98327.17;;;-5.51;77.48
55191;BME280;41070;50.360;18.742;2022-11-20T03:16:41;98323.43;;;-5.52;77.78
55191;BME280;41070;50.360;18.742;2022-11-20T03:19:09;98323.26;;;-5.53;77.54
55191;BME280;41070;50.360;18.742;2022-11-20T03:21:38;98320.37;;;-5.55;77.04
55191;BME280;41070;50.360;18.742;2022-11-20T03:24:17;98319.13;;;-5.60;77.23
55191;BME280;41070;50.360;18.742;2022-11-20T03:26:45;98319.67;;;-5.62;77.10
55191;BME280;41070;50.360;18.742;2022-11-20T03:29:12;98320.85;;;-5.63;77.14
55191;BME280;41070;50.360;18.742;2022-11-20T03:31:41;98317.33;;;-5.65;77.08
55191;BME280;41070;50.360;18.742;2022-11-20T03:34:10;98317.77;;;-5.68;77.00
55191;BME280;41070;50.360;18.742;2022-11-20T03:36:39;98318.61;;;-5.71;76.88
55191;BME280;41070;50.360;18.742;2022-11-20T03:39:08;98316.18;;;-5.74;77.07
55191;BME280;41070;50.360;18.742;2022-11-20T03:41:38;98316.45;;;-5.77;77.25
55191;BME280;41070;50.360;18.742;2022-11-20T03:44:08;98317.59;;;-5.79;77.17
55191;BME280;41070;50.360;18.742;2022-11-20T03:46:36;98318.06;;;-5.82;77.25
55191;BME280;41070;50.360;18.742;2022-11-20T03:49:04;98319.71;;;-5.83;77.23
55191;BME280;41070;50.360;18.742;2022-11-20T03:51:34;98319.32;;;-5.85;77.61
55191;BME280;41070;50.360;18.742;2022-11-20T03:54:05;98319.93;;;-5.87;77.44
55191;BME280;41070;50.360;18.742;2022-11-20T03:56:37;98316.84;;;-5.88;77.58
55191;BME280;41070;50.360;18.742;2022-11-20T03:59:05;98319.55;;;-5.91;77.63
55191;BME280;41070;50.360;18.742;2022-11-20T04:01:35;98322.29;;;-5.95;77.34
55191;BME280;41070;50.360;18.742;2022-11-20T04:04:04;98324.77;;;-5.99;77.45
55191;BME280;41070;50.360;18.742;2022-11-20T04:06:37;98324.33;;;-6.01;77.65
55191;BME280;41070;50.360;18.742;2022-11-20T04:09:05;98324.74;;;-6.00;77.95
55191;BME280;41070;50.360;18.742;2022-11-20T04:11:35;98330.96;;;-5.99;77.88
55191;BME280;41070;50.360;18.742;2022-11-20T04:14:05;98328.20;;;-5.99;77.82
55191;BME280;41070;50.360;18.742;2022-11-20T04:16:35;98326.58;;;-6.00;77.81
55191;BME280;41070;50.360;18.742;2022-11-20T04:19:05;98325.17;;;-5.99;77.98
55191;BME280;41070;50.360;18.742;2022-11-20T04:21:33;98321.63;;;-5.99;77.83
55191;BME280;41070;50.360;18.742;2022-11-20T04:24:01;98318.51;;;-5.99;78.09
55191;BME280;41070;50.360;18.742;2022-11-20T04:26:30;98313.48;;;-5.97;77.86
55191;BME280;41070;50.360;18.742;2022-11-20T04:28:58;98308.79;;;-5.97;78.07
55191;BME280;41070;50.360;18.742;2022-11-20T04:31:30;98305.46;;;-5.93;78.16
55191;BME280;41070;50.360;18.742;2022-11-20T04:34:00;98301.29;;;-5.89;78.24
55191;BME280;41070;50.360;18.742;2022-11-20T04:36:28;98298.90;;;-5.85;78.76
55191;BME280;41070;50.360;18.742;2022-11-20T04:38:58;98291.46;;;-5.79;78.87
55191;BME280;41070;50.360;18.742;2022-11-20T04:41:28;98284.40;;;-5.76;78.61
55191;BME280;41070;50.360;18.742;2022-11-20T04:43:58;98282.30;;;-5.74;79.29
55191;BME280;41070;50.360;18.742;2022-11-20T04:46:30;98288.63;;;-5.71;78.80
55191;BME280;41070;50.360;18.742;2022-11-20T04:48:58;98289.63;;;-5.71;78.57
55191;BME280;41070;50.360;18.742;2022-11-20T04:51:26;98285.88;;;-5.70;79.04
55191;BME280;41070;50.360;18.742;2022-11-20T04:53:54;98284.44;;;-5.69;78.99
55191;BME280;41070;50.360;18.742;2022-11-20T04:56:22;98281.58;;;-5.67;78.65
55191;BME280;41070;50.360;18.742;2022-11-20T04:58:50;98277.69;;;-5.66;78.60
55191;BME280;41070;50.360;18.742;2022-11-20T05:01:21;98276.23;;;-5.65;78.13
55191;BME280;41070;50.360;18.742;2022-11-20T05:03:49;98270.33;;;-5.68;77.99
55191;BME280;41070;50.360;18.742;2022-11-20T05:06:19;98269.67;;;-5.70;77.94
55191;BME280;41070;50.360;18.742;2022-11-20T05:08:47;98266.06;;;-5.71;78.09
55191;BME280;41070;50.360;18.742;2022-11-20T05:11:18;98258.47;;;-5.74;77.88
55191;BME280;41070;50.360;18.742;2022-11-20T05:13:46;98255.64;;;-5.76;77.90
55191;BME280;41070;50.360;18.742;2022-11-20T05:16:19;98249.94;;;-5.78;77.60
55191;BME280;41070;50.360;18.742;2022-11-20T05:18:48;98255.34;;;-5.80;77.46
55191;BME280;41070;50.360;18.742;2022-11-20T05:21:16;98255.11;;;-5.81;77.57
55191;BME280;41070;50.360;18.742;2022-11-20T05:23:45;98259.35;;;-5.80;77.66
55191;BME280;41070;50.360;18.742;2022-11-20T05:26:15;98256.99;;;-5.80;77.61
55191;BME280;41070;50.360;18.742;2022-11-20T05:28:44;98254.23;;;-5.80;77.43
55191;BME280;41070;50.360;18.742;2022-11-20T05:31:14;98250.57;;;-5.82;77.21
55191;BME280;41070;50.360;18.742;2022-11-20T05:33:43;98252.39;;;-5.83;77.04
55191;BME280;41070;50.360;18.742;2022-11-20T05:36:12;98256.45;;;-5.87;76.92
55191;BME280;41070;50.360;18.742;2022-11-20T05:38:41;98262.27;;;-5.93;76.75
55191;BME280;41070;50.360;18.742;2022-11-20T05:41:17;98263.75;;;-5.98;76.74
55191;BME280;41070;50.360;18.742;2022-11-20T05:43:50;98259.83;;;-6.03;76.66
55191;BME280;41070;50.360;18.742;2022-11-20T05:46:19;98259.04;;;-6.08;76.74
55191;BME280;41070;50.360;18.742;2022-11-20T05:48:47;98260.45;;;-6.12;77.05
55191;BME280;41070;50.360;18.742;2022-11-20T05:51:17;98260.04;;;-6.15;76.73
55191;BME280;41070;50.360;18.742;2022-11-20T05:53:45;98256.48;;;-6.21;76.43
55191;BME280;41070;50.360;18.742;2022-11-20T05:56:16;98255.27;;;-6.26;76.60
55191;BME280;41070;50.360;18.742;2022-11-20T05:58:45;98258.96;;;-6.30;76.66
55191;BME280;41070;50.360;18.742;2022-11-20T06:01:17;98254.27;;;-6.35;76.70
55191;BME280;41070;50.360;18.742;2022-11-20T06:03:45;98252.66;;;-6.38;76.60
55191;BME280;41070;50.360;18.742;2022-11-20T06:06:14;98244.54;;;-6.41;76.63
55191;BME280;41070;50.360;18.742;2022-11-20T06:08:43;98236.64;;;-6.44;76.42
55191;BME280;41070;50.360;18.742;2022-11-20T06:11:12;98241.77;;;-6.47;76.47
55191;BME280;41070;50.360;18.742;2022-11-20T06:13:41;98242.00;;;-6.47;76.61
55191;BME280;41070;50.360;18.742;2022-11-20T06:16:10;98242.02;;;-6.46;76.60
55191;BME280;41070;50.360;18.742;2022-11-20T06:18:38;98243.14;;;-6.44;76.48
55191;BME280;41070;50.360;18.742;2022-11-20T06:21:08;98245.63;;;-6.42;76.40
55191;BME280;41070;50.360;18.742;2022-11-20T06:23:37;98246.20;;;-6.39;76.21
55191;BME280;41070;50.360;18.742;2022-11-20T06:26:11;98248.94;;;-6.36;76.13
55191;BME280;41070;50.360;18.742;2022-11-20T06:28:39;98251.79;;;-6.33;75.95
55191;BME280;41070;50.360;18.742;2022-11-20T06:31:07;98250.65;;;-6.32;76.35
55191;BME280;41070;50.360;18.742;2022-11-20T06:33:37;98248.54;;;-6.34;76.48
55191;BME280;41070;50.360;18.742;2022-11-20T06:36:04;98250.69;;;-6.37;76.19
55191;BME280;41070;50.360;18.742;2022-11-20T06:38:32;98250.98;;;-6.36;76.60
55191;BME280;41070;50.360;18.742;2022-11-20T06:41:00;98250.83;;;-6.35;76.69
55191;BME280;41070;50.360;18.742;2022-11-20T06:43:29;98249.60;;;-6.32;76.84
55191;BME280;41070;50.360;18.742;2022-11-20T06:46:01;98248.28;;;-6.29;76.98
55191;BME280;41070;50.360;18.742;2022-11-20T06:55:47;98239.27;;;-6.20;77.41
55191;BME280;41070;50.360;18.742;2022-11-20T06:58:15;98237.73;;;-6.21;77.08
55191;BME280;41070;50.360;18.742;2022-11-20T07:00:43;98236.06;;;-6.25;77.35
55191;BME280;41070;50.360;18.742;2022-11-20T07:03:11;98234.89;;;-6.27;77.43
55191;BME280;41070;50.360;18.742;2022-11-20T07:05:39;98236.22;;;-6.24;77.70
55191;BME280;41070;50.360;18.742;2022-11-20T07:08:07;98232.09;;;-6.18;77.72
55191;BME280;41070;50.360;18.742;2022-11-20T07:10:35;98233.14;;;-6.08;78.08
55191;BME280;41070;50.360;18.742;2022-11-20T07:13:03;98233.84;;;-5.96;77.96
55191;BME280;41070;50.360;18.742;2022-11-20T07:15:33;98235.33;;;-5.83;78.25
55191;BME280;41070;50.360;18.742;2022-11-20T07:18:01;98229.98;;;-5.68;78.60
55191;BME280;41070;50.360;18.742;2022-11-20T07:20:29;98224.46;;;-5.55;78.50
55191;BME280;41070;50.360;18.742;2022-11-20T07:22:57;98221.14;;;-5.43;78.39
55191;BME280;41070;50.360;18.742;2022-11-20T07:25:27;98216.26;;;-5.30;78.61
55191;BME280;41070;50.360;18.742;2022-11-20T07:27:57;98213.34;;;-5.17;78.93
55191;BME280;41070;50.360;18.742;2022-11-20T07:30:30;98216.71;;;-5.06;79.25
55191;BME280;41070;50.360;18.742;2022-11-20T07:33:03;98217.41;;;-4.96;79.33
55191;BME280;41070;50.360;18.742;2022-11-20T07:35:35;98216.86;;;-4.85;79.28
55191;BME280;41070;50.360;18.742;2022-11-20T07:38:07;98207.92;;;-4.78;79.27
55191;BME280;41070;50.360;18.742;2022-11-20T07:40:40;98206.98;;;-4.71;78.97
55191;BME280;41070;50.360;18.742;2022-11-20T07:43:15;98204.56;;;-4.66;79.21
55191;BME280;41070;50.360;18.742;2022-11-20T07:45:49;98204.50;;;-4.60;79.05
55191;BME280;41070;50.360;18.742;2022-11-20T07:48:17;98206.01;;;-4.51;79.65
55191;BME280;41070;50.360;18.742;2022-11-20T07:50:45;98204.33;;;-4.43;79.44
55191;BME280;41070;50.360;18.742;2022-11-20T07:53:18;98204.15;;;-4.38;79.47
55191;BME280;41070;50.360;18.742;2022-11-20T07:55:47;98208.15;;;-4.31;79.53
55191;BME280;41070;50.360;18.742;2022-11-20T07:58:15;98207.75;;;-4.26;79.80
55191;BME280;41070;50.360;18.742;2022-11-20T08:00:43;98209.70;;;-4.22;79.82
55191;BME280;41070;50.360;18.742;2022-11-20T08:03:11;98210.10;;;-4.16;79.46
55191;BME280;41070;50.360;18.742;2022-11-20T08:05:43;98214.88;;;-4.09;79.63
55191;BME280;41070;50.360;18.742;2022-11-20T08:08:15;98215.98;;;-3.99;79.56
55191;BME280;41070;50.360;18.742;2022-11-20T08:10:48;98224.06;;;-3.86;79.67
55191;BME280;41070;50.360;18.742;2022-11-20T08:13:22;98224.67;;;-3.72;79.93
55191;BME280;41070;50.360;18.742;2022-11-20T08:16:06;98222.94;;;-3.55;79.99
55191;BME280;41070;50.360;18.742;2022-11-20T08:18:40;98225.77;;;-3.39;79.79
55191;BME280;41070;50.360;18.742;2022-11-20T08:21:13;98232.15;;;-3.27;79.66
55191;BME280;41070;50.360;18.742;2022-11-20T08:23:46;98233.20;;;-3.15;79.78
55191;BME280;41070;50.360;18.742;2022-11-20T08:26:17;98234.30;;;-3.08;79.56
55191;BME280;41070;50.360;18.742;2022-11-20T08:28:49;98236.63;;;-3.03;79.61
55191;BME280;41070;50.360;18.742;2022-11-20T08:31:26;98237.04;;;-2.98;79.85
55191;BME280;41070;50.360;18.742;2022-11-20T08:33:58;98238.23;;;-2.93;79.83
55191;BME280;41070;50.360;18.742;2022-11-20T08:36:33;98244.48;;;-2.85;79.54
55191;BME280;41070;50.360;18.742;2022-11-20T08:39:11;98245.52;;;-2.81;79.62
55191;BME280;41070;50.360;18.742;2022-11-20T08:41:45;98245.73;;;-2.75;79.91
55191;BME280;41070;50.360;18.742;2022-11-20T08:44:22;98245.61;;;-2.71;79.92
55191;BME280;41070;50.360;18.742;2022-11-20T08:46:57;98246.71;;;-2.65;79.88
55191;BME280;41070;50.360;18.742;2022-11-20T08:49:34;98249.81;;;-2.63;79.71
55191;BME280;41070;50.360;18.742;2022-11-20T08:55:12;98249.73;;;-2.57;79.68
55191;BME280;41070;50.360;18.742;2022-11-20T08:57:45;98246.27;;;-2.49;79.29
55191;BME280;41070;50.360;18.742;2022-11-20T09:00:23;98240.65;;;-2.39;79.35
55191;BME280;41070;50.360;18.742;2022-11-20T09:02:55;98239.42;;;-2.29;79.16
55191;BME280;41070;50.360;18.742;2022-11-20T09:05:29;98245.01;;;-2.19;78.98
55191;BME280;41070;50.360;18.742;2022-11-20T09:08:01;98242.62;;;-2.13;78.77
55191;BME280;41070;50.360;18.742;2022-11-20T09:10:33;98242.12;;;-2.05;78.95
55191;BME280;41070;50.360;18.742;2022-11-20T09:13:06;98241.52;;;-1.96;78.77
55191;BME280;41070;50.360;18.742;2022-11-20T09:15:39;98242.52;;;-1.93;78.58
55191;BME280;41070;50.360;18.742;2022-11-20T09:18:13;98238.66;;;-1.91;78.60
55191;BME280;41070;50.360;18.742;2022-11-20T09:20:46;98233.23;;;-1.89;78.37
55191;BME280;41070;50.360;18.742;2022-11-20T09:23:21;98234.46;;;-1.87;78.36
55191;BME280;41070;50.360;18.742;2022-11-20T09:26:12;98232.23;;;-1.83;78.58
55191;BME280;41070;50.360;18.742;2022-11-20T09:32:38;98223.83;;;-1.71;78.60
55191;BME280;41070;50.360;18.742;2022-11-20T09:39:00;98222.91;;;-1.75;78.16
55191;BME280;41070;50.360;18.742;2022-11-20T09:51:37;98202.05;;;-1.61;77.51
55191;BME280;41070;50.360;18.742;2022-11-20T09:57:57;98207.46;;;-1.36;78.01
55191;BME280;41070;50.360;18.742;2022-11-20T10:07:07;98192.27;;;-1.12;77.90
55191;BME280;41070;50.360;18.742;2022-11-20T10:09:55;98187.27;;;-1.10;77.47
55191;BME280;41070;50.360;18.742;2022-11-20T10:29:38;98172.90;;;-0.83;77.98
55191;BME280;41070;50.360;18.742;2022-11-20T10:32:39;98168.29;;;-0.83;77.89
55191;BME280;41070;50.360;18.742;2022-11-20T10:35:34;98153.20;;;-0.78;78.20
55191;BME280;41070;50.360;18.742;2022-11-20T10:38:21;98148.63;;;-0.71;78.15
55191;BME280;41070;50.360;18.742;2022-11-20T10:41:24;98144.79;;;-0.62;78.36
55191;BME280;41070;50.360;18.742;2022-11-20T10:44:48;98142.42;;;-0.47;78.44
55191;BME280;41070;50.360;18.742;2022-11-20T10:47:51;98139.33;;;-0.29;78.35
55191;BME280;41070;50.360;18.742;2022-11-20T11:11:32;98131.67;;;0.05;77.41
55191;BME280;41070;50.360;18.742;2022-11-20T11:20:24;98133.72;;;0.07;76.99
55191;BME280;41070;50.360;18.742;2022-11-20T11:22:58;98127.06;;;0.16;77.62
55191;BME280;41070;50.360;18.742;2022-11-20T11:25:36;98130.52;;;0.21;77.34
55191;BME280;41070;50.360;18.742;2022-11-20T11:34:15;98122.55;;;0.30;77.93
55191;BME280;41070;50.360;18.742;2022-11-20T11:37:15;98117.77;;;0.32;77.95
55191;BME280;41070;50.360;18.742;2022-11-20T11:50:29;98098.48;;;0.36;77.77
55191;BME280;41070;50.360;18.742;2022-11-20T11:53:11;98097.39;;;0.37;77.78
55191;BME280;41070;50.360;18.742;2022-11-20T11:58:47;98098.48;;;0.43;77.54
55191;BME280;41070;50.360;18.742;2022-11-20T12:01:47;98095.31;;;0.45;77.68
55191;BME280;41070;50.360;18.742;2022-11-20T12:07:47;98090.55;;;0.59;78.09
55191;BME280;41070;50.360;18.742;2022-11-20T12:11:11;98085.67;;;0.65;78.37
55191;BME280;41070;50.360;18.742;2022-11-20T12:13:53;98090.33;;;0.73;78.54
55191;BME280;41070;50.360;18.742;2022-11-20T12:16:36;98087.90;;;0.71;78.14
55191;BME280;41070;50.360;18.742;2022-11-20T12:19:13;98080.48;;;0.65;78.09
55191;BME280;41070;50.360;18.742;2022-11-20T12:24:52;98065.42;;;0.54;77.90
55191;BME280;41070;50.360;18.742;2022-11-20T12:30:19;98057.23;;;0.55;77.85
55191;BME280;41070;50.360;18.742;2022-11-20T12:33:04;98055.02;;;0.59;78.45
55191;BME280;41070;50.360;18.742;2022-11-20T17:29:08;97930.52;;;-0.99;84.40
55191;BME280;41070;50.360;18.742;2022-11-20T17:32:55;97928.41;;;-0.98;84.58
55191;BME280;41070;50.360;18.742;2022-11-20T17:41:48;97920.28;;;-1.03;83.88
55191;BME280;41070;50.360;18.742;2022-11-20T17:44:46;97915.95;;;-1.14;83.38
55191;BME280;41070;50.360;18.742;2022-11-20T17:47:18;97917.21;;;-1.22;83.39
55191;BME280;41070;50.360;18.742;2022-11-20T17:49:51;97913.46;;;-1.34;83.39
55191;BME280;41070;50.360;18.742;2022-11-20T17:52:20;97902.80;;;-1.43;83.94
55191;BME280;41070;50.360;18.742;2022-11-20T17:54:53;97897.02;;;-1.51;83.83
55191;BME280;41070;50.360;18.742;2022-11-20T17:57:32;97896.47;;;-1.59;83.99
55191;BME280;41070;50.360;18.742;2022-11-20T18:01:06;97892.71;;;-1.66;83.95
55191;BME280;41070;50.360;18.742;2022-11-20T18:03:40;97890.54;;;-1.68;84.24
55191;BME280;41070;50.360;18.742;2022-11-20T18:06:14;97898.76;;;-1.67;84.29
55191;BME280;41070;50.360;18.742;2022-11-20T18:08:47;97899.82;;;-1.66;84.84
55191;BME280;41070;50.360;18.742;2022-11-20T18:11:24;97896.17;;;-1.66;85.05
55191;BME280;41070;50.360;18.742;2022-11-20T18:13:58;97899.29;;;-1.63;85.07
55191;BME280;41070;50.360;18.742;2022-11-20T18:17:13;97913.92;;;-1.63;85.33
55191;BME280;41070;50.360;18.742;2022-11-20T18:19:46;97915.27;;;-1.61;85.40
55191;BME280;41070;50.360;18.742;2022-11-20T18:22:19;97912.81;;;-1.61;85.51
55191;BME280;41070;50.360;18.742;2022-11-20T18:24:50;97914.02;;;-1.61;85.65
55191;BME280;41070;50.360;18.742;2022-11-20T18:27:22;97904.08;;;-1.61;85.91
55191;BME280;41070;50.360;18.742;2022-11-20T18:29:54;97908.59;;;-1.59;85.72
55191;BME280;41070;50.360;18.742;2022-11-20T18:32:41;97904.96;;;-1.58;85.91
55191;BME280;41070;50.360;18.742;2022-11-20T18:38:10;97906.48;;;-1.58;86.15
55191;BME280;41070;50.360;18.742;2022-11-20T18:41:19;97905.46;;;-1.55;86.10
55191;BME280;41070;50.360;18.742;2022-11-20T18:53:04;97910.36;;;-1.53;86.27
55191;BME280;41070;50.360;18.742;2022-11-20T18:56:16;97913.67;;;-1.53;86.32
55191;BME280;41070;50.360;18.742;2022-11-20T18:58:52;97913.03;;;-1.53;86.25
55191;BME280;41070;50.360;18.742;2022-11-20T19:04:19;97918.67;;;-1.49;86.08
55191;BME280;41070;50.360;18.742;2022-11-20T19:10:27;97911.23;;;-1.49;85.72
55191;BME280;41070;50.360;18.742;2022-11-20T19:12:59;97914.70;;;-1.50;85.90
55191;BME280;41070;50.360;18.742;2022-11-20T19:15:32;97912.89;;;-1.53;85.36
55191;BME280;41070;50.360;18.742;2022-11-20T19:18:09;97907.88;;;-1.61;85.18
55191;BME280;41070;50.360;18.742;2022-11-20T19:20:44;97907.06;;;-1.69;85.50
55191;BME280;41070;50.360;18.742;2022-11-20T19:23:17;97902.14;;;-1.74;85.44
55191;BME280;41070;50.360;18.742;2022-11-20T19:25:58;97906.55;;;-1.80;85.37
55191;BME280;41070;50.360;18.742;2022-11-20T19:28:33;97900.77;;;-1.84;85.20
55191;BME280;41070;50.360;18.742;2022-11-20T19:31:16;97906.08;;;-1.91;85.21
55191;BME280;41070;50.360;18.742;2022-11-20T19:33:55;97905.66;;;-1.91;85.73
55191;BME280;41070;50.360;18.742;2022-11-20T19:36:31;97907.94;;;-1.88;85.86
55191;BME280;41070;50.360;18.742;2022-11-20T19:39:10;97907.89;;;-1.89;85.84
55191;BME280;41070;50.360;18.742;2022-11-20T19:41:42;97907.73;;;-1.88;85.93
55191;BME280;41070;50.360;18.742;2022-11-20T19:44:20;97910.53;;;-1.85;85.91
55191;BME280;41070;50.360;18.742;2022-11-20T19:46:52;97902.52;;;-1.82;86.18
55191;BME280;41070;50.360;18.742;2022-11-20T19:49:29;97911.34;;;-1.81;86.08
55191;BME280;41070;50.360;18.742;2022-11-20T19:57:37;97903.52;;;-1.93;85.41
55191;BME280;41070;50.360;18.742;2022-11-20T20:00:13;97904.78;;;-1.98;85.38
55191;BME280;41070;50.360;18.742;2022-11-20T20:05:35;97900.82;;;-2.12;85.38
55191;BME280;41070;50.360;18.742;2022-11-20T20:14:01;97900.10;;;-2.15;85.82
55191;BME280;41070;50.360;18.742;2022-11-20T20:19:49;97894.81;;;-2.15;85.77
55191;BME280;41070;50.360;18.742;2022-11-20T20:25:28;97904.30;;;-2.21;85.84
55191;BME280;41070;50.360;18.742;2022-11-20T20:28:47;97901.59;;;-2.23;85.64
55191;BME280;41070;50.360;18.742;2022-11-20T20:31:45;97892.48;;;-2.25;85.53
55191;BME280;41070;50.360;18.742;2022-11-20T20:34:21;97891.64;;;-2.25;85.39
55191;BME280;41070;50.360;18.742;2022-11-20T20:36:56;97893.13;;;-2.28;85.54
55191;BME280;41070;50.360;18.742;2022-11-20T20:39:55;97893.25;;;-2.30;85.27
55191;BME280;41070;50.360;18.742;2022-11-20T20:45:19;97895.12;;;-2.34;85.28
55191;BME280;41070;50.360;18.742;2022-11-20T20:47:52;97895.44;;;-2.34;85.30
55191;BME280;41070;50.360;18.742;2022-11-20T20:50:57;97895.72;;;-2.30;85.62
55191;BME280;41070;50.360;18.742;2022-11-20T20:53:34;97901.64;;;-2.23;85.80
55191;BME280;41070;50.360;18.742;2022-11-20T20:56:07;97902.15;;;-2.16;85.88
55191;BME280;41070;50.360;18.742;2022-11-20T20:58:40;97896.11;;;-2.08;85.99
55191;BME280;41070;50.360;18.742;2022-11-20T21:01:15;97893.55;;;-2.04;86.00
55191;BME280;41070;50.360;18.742;2022-11-20T21:03:53;97893.27;;;-1.95;86.11
55191;BME280;41070;50.360;18.742;2022-11-20T21:06:28;97895.66;;;-1.87;86.33